sensor_id;sensor_type;location;lat;lon;timestamp;temperature;humidity
18177;DHT22;9213;50.858;3.964;2023-06-14T00:00:47;25.00;30.10
18177;DHT22;9213;50.858;3.964;2023-06-14T00:03:14;25.00;30.50
18177;DHT22;9213;50.858;3.964;2023-06-14T00:05:43;24.90;30.50
18177;DHT22;9213;50.858;3.964;2023-06-14T00:08:13;24.90;30.90
18177;DHT22;9213;50.858;3.964;2023-06-14T00:10:40;24.90;31.10
18177;DHT22;9213;50.858;3.964;2023-06-14T00:13:09;24.80;31.20
18177;DHT22;9213;50.858;3.964;2023-06-14T00:15:36;24.80;31.60
18177;DHT22;9213;50.858;3.964;2023-06-14T00:18:04;24.70;31.70
18177;DHT22;9213;50.858;3.964;2023-06-14T00:20:32;24.70;32.00
18177;DHT22;9213;50.858;3.964;2023-06-14T00:22:59;24.60;32.20
18177;DHT22;9213;50.858;3.964;2023-06-14T00:25:26;24.60;32.90
18177;DHT22;9213;50.858;3.964;2023-06-14T00:27:54;24.50;32.60
18177;DHT22;9213;50.858;3.964;2023-06-14T00:30:23;24.50;32.80
18177;DHT22;9213;50.858;3.964;2023-06-14T00:32:50;24.50;32.90
18177;DHT22;9213;50.858;3.964;2023-06-14T00:35:17;24.40;33.00
18177;DHT22;9213;50.858;3.964;2023-06-14T00:37:44;24.40;33.20
18177;DHT22;9213;50.858;3.964;2023-06-14T00:40:11;24.30;33.50
18177;DHT22;9213;50.858;3.964;2023-06-14T00:42:38;24.30;33.70
18177;DHT22;9213;50.858;3.964;2023-06-14T00:45:05;24.30;33.90
18177;DHT22;9213;50.858;3.964;2023-06-14T00:47:35;24.20;34.00
18177;DHT22;9213;50.858;3.964;2023-06-14T00:50:03;24.20;34.30
18177;DHT22;9213;50.858;3.964;2023-06-14T00:52:32;24.10;34.40
18177;DHT22;9213;50.858;3.964;2023-06-14T00:55:00;24.10;34.70
18177;DHT22;9213;50.858;3.964;2023-06-14T00:57:27;24.00;34.70
18177;DHT22;9213;50.858;3.964;2023-06-14T00:59:55;24.00;34.80
18177;DHT22;9213;50.858;3.964;2023-06-14T01:02:22;24.00;35.00
18177;DHT22;9213;50.858;3.964;2023-06-14T01:04:52;23.90;35.30
18177;DHT22;9213;50.858;3.964;2023-06-14T01:07:25;23.90;35.40
18177;DHT22;9213;50.858;3.964;2023-06-14T01:10:03;23.90;35.60
18177;DHT22;9213;50.858;3.964;2023-06-14T01:12:37;23.80;35.60
18177;DHT22;9213;50.858;3.964;2023-06-14T01:15:06;23.80;35.50
18177;DHT22;9213;50.858;3.964;2023-06-14T01:17:34;23.80;35.70
18177;DHT22;9213;50.858;3.964;2023-06-14T01:20:03;23.70;35.90
18177;DHT22;9213;50.858;3.964;2023-06-14T01:22:50;23.70;36.10
18177;DHT22;9213;50.858;3.964;2023-06-14T01:25:17;23.70;36.00
18177;DHT22;9213;50.858;3.964;2023-06-14T01:27:47;23.60;35.90
18177;DHT22;9213;50.858;3.964;2023-06-14T01:30:15;23.60;36.00
18177;DHT22;9213;50.858;3.964;2023-06-14T01:32:44;23.50;36.00
18177;DHT22;9213;50.858;3.964;2023-06-14T01:35:11;23.50;35.90
18177;DHT22;9213;50.858;3.964;2023-06-14T01:37:40;23.50;35.80
18177;DHT22;9213;50.858;3.964;2023-06-14T01:40:10;23.50;36.10
18177;DHT22;9213;50.858;3.964;2023-06-14T01:42:38;23.50;36.00
18177;DHT22;9213;50.858;3.964;2023-06-14T01:45:06;23.50;36.10
18177;DHT22;9213;50.858;3.964;2023-06-14T01:47:34;23.40;36.00
18177;DHT22;9213;50.858;3.964;2023-06-14T01:50:02;23.40;35.80
18177;DHT22;9213;50.858;3.964;2023-06-14T01:52:29;23.40;35.60
18177;DHT22;9213;50.858;3.964;2023-06-14T01:54:57;23.30;35.40
18177;DHT22;9213;50.858;3.964;2023-06-14T01:57:29;23.30;35.80
18177;DHT22;9213;50.858;3.964;2023-06-14T01:59:55;23.30;35.70
18177;DHT22;9213;50.858;3.964;2023-06-14T02:02:22;23.30;35.60
18177;DHT22;9213;50.858;3.964;2023-06-14T02:04:49;23.30;35.60
18177;DHT22;9213;50.858;3.964;2023-06-14T02:07:16;23.20;35.50
18177;DHT22;9213;50.858;3.964;2023-06-14T02:09:43;23.20;35.30
18177;DHT22;9213;50.858;3.964;2023-06-14T02:12:10;23.20;35.50
18177;DHT22;9213;50.858;3.964;2023-06-14T02:14:38;23.20;35.20
18177;DHT22;9213;50.858;3.964;2023-06-14T02:17:05;23.10;35.10
18177;DHT22;9213;50.858;3.964;2023-06-14T02:19:33;23.10;35.20
18177;DHT22;9213;50.858;3.964;2023-06-14T02:22:00;23.10;35.20
18177;DHT22;9213;50.858;3.964;2023-06-14T02:24:27;23.10;35.00
18177;DHT22;9213;50.858;3.964;2023-06-14T02:26:54;23.00;34.90
18177;DHT22;9213;50.858;3.964;2023-06-14T02:29:20;23.00;34.80
18177;DHT22;9213;50.858;3.964;2023-06-14T02:31:49;23.00;34.90
18177;DHT22;9213;50.858;3.964;2023-06-14T02:34:16;23.00;34.60
18177;DHT22;9213;50.858;3.964;2023-06-14T02:36:43;23.00;34.70
18177;DHT22;9213;50.858;3.964;2023-06-14T02:39:11;23.00;34.50
18177;DHT22;9213;50.858;3.964;2023-06-14T02:41:38;23.00;34.50
18177;DHT22;9213;50.858;3.964;2023-06-14T02:44:05;22.90;34.60
18177;DHT22;9213;50.858;3.964;2023-06-14T02:46:32;22.90;34.80
18177;DHT22;9213;50.858;3.964;2023-06-14T02:49:02;22.90;34.50
18177;DHT22;9213;50.858;3.964;2023-06-14T02:51:28;22.90;34.50
18177;DHT22;9213;50.858;3.964;2023-06-14T02:53:55;22.80;34.60
18177;DHT22;9213;50.858;3.964;2023-06-14T02:56:22;22.80;34.60
18177;DHT22;9213;50.858;3.964;2023-06-14T02:58:51;22.80;34.60
18177;DHT22;9213;50.858;3.964;2023-06-14T03:01:19;22.70;34.60
18177;DHT22;9213;50.858;3.964;2023-06-14T03:03:47;22.70;34.50
18177;DHT22;9213;50.858;3.964;2023-06-14T03:06:15;22.70;34.60
18177;DHT22;9213;50.858;3.964;2023-06-14T03:08:42;22.70;35.30
18177;DHT22;9213;50.858;3.964;2023-06-14T03:11:09;22.70;34.60
18177;DHT22;9213;50.858;3.964;2023-06-14T03:13:36;22.70;34.60
18177;DHT22;9213;50.858;3.964;2023-06-14T03:16:04;22.60;34.60
18177;DHT22;9213;50.858;3.964;2023-06-14T03:18:32;22.60;34.40
18177;DHT22;9213;50.858;3.964;2023-06-14T03:21:01;22.60;34.60
18177;DHT22;9213;50.858;3.964;2023-06-14T03:23:29;22.60;34.60
18177;DHT22;9213;50.858;3.964;2023-06-14T03:25:57;22.50;34.60
18177;DHT22;9213;50.858;3.964;2023-06-14T03:28:24;22.50;34.50
18177;DHT22;9213;50.858;3.964;2023-06-14T03:30:51;22.50;34.60
18177;DHT22;9213;50.858;3.964;2023-06-14T03:33:18;22.40;34.50
18177;DHT22;9213;50.858;3.964;2023-06-14T03:35:45;22.50;34.70
18177;DHT22;9213;50.858;3.964;2023-06-14T03:38:12;22.40;34.50
18177;DHT22;9213;50.858;3.964;2023-06-14T03:40:40;22.40;34.90
18177;DHT22;9213;50.858;3.964;2023-06-14T03:43:07;22.40;34.80
18177;DHT22;9213;50.858;3.964;2023-06-14T03:45:34;22.40;35.10
18177;DHT22;9213;50.858;3.964;2023-06-14T03:48:01;22.40;35.40
18177;DHT22;9213;50.858;3.964;2023-06-14T03:50:28;22.40;35.00
18177;DHT22;9213;50.858;3.964;2023-06-14T03:52:55;22.40;34.70
18177;DHT22;9213;50.858;3.964;2023-06-14T03:55:22;22.30;34.90
18177;DHT22;9213;50.858;3.964;2023-06-14T03:57:52;22.30;35.60
18177;DHT22;9213;50.858;3.964;2023-06-14T04:00:19;22.30;35.90
18177;DHT22;9213;50.858;3.964;2023-06-14T04:02:46;22.30;36.20
18177;DHT22;9213;50.858;3.964;2023-06-14T04:05:13;22.30;36.10
18177;DHT22;9213;50.858;3.964;2023-06-14T04:07:42;22.30;36.50
18177;DHT22;9213;50.858;3.964;2023-06-14T04:10:11;22.30;36.40
18177;DHT22;9213;50.858;3.964;2023-06-14T04:12:38;22.30;36.60
18177;DHT22;9213;50.858;3.964;2023-06-14T04:15:08;22.30;35.90
18177;DHT22;9213;50.858;3.964;2023-06-14T04:17:36;22.30;35.50
18177;DHT22;9213;50.858;3.964;2023-06-14T04:20:04;22.30;35.80
18177;DHT22;9213;50.858;3.964;2023-06-14T04:22:33;22.30;36.20
18177;DHT22;9213;50.858;3.964;2023-06-14T04:25:00;22.30;36.10
18177;DHT22;9213;50.858;3.964;2023-06-14T04:27:27;22.30;36.20
18177;DHT22;9213;50.858;3.964;2023-06-14T04:29:56;22.30;36.40
18177;DHT22;9213;50.858;3.964;2023-06-14T04:32:26;22.30;36.00
18177;DHT22;9213;50.858;3.964;2023-06-14T04:34:55;22.40;35.90
18177;DHT22;9213;50.858;3.964;2023-06-14T04:37:23;22.40;35.40
18177;DHT22;9213;50.858;3.964;2023-06-14T04:39:50;22.40;35.80
18177;DHT22;9213;50.858;3.964;2023-06-14T04:42:17;22.40;36.10
18177;DHT22;9213;50.858;3.964;2023-06-14T04:44:46;22.40;36.20
18177;DHT22;9213;50.858;3.964;2023-06-14T04:47:14;22.50;36.40
18177;DHT22;9213;50.858;3.964;2023-06-14T04:49:43;22.50;36.30
18177;DHT22;9213;50.858;3.964;2023-06-14T04:52:10;22.60;35.90
18177;DHT22;9213;50.858;3.964;2023-06-14T04:54:38;22.60;35.20
18177;DHT22;9213;50.858;3.964;2023-06-14T04:57:08;22.70;36.10
18177;DHT22;9213;50.858;3.964;2023-06-14T04:59:39;22.80;35.00
18177;DHT22;9213;50.858;3.964;2023-06-14T05:02:06;23.00;34.30
18177;DHT22;9213;50.858;3.964;2023-06-14T05:04:34;23.20;34.50
18177;DHT22;9213;50.858;3.964;2023-06-14T05:07:06;23.30;34.50
18177;DHT22;9213;50.858;3.964;2023-06-14T05:09:34;23.40;34.60
18177;DHT22;9213;50.858;3.964;2023-06-14T05:12:02;23.40;34.80
18177;DHT22;9213;50.858;3.964;2023-06-14T05:14:29;23.40;34.30
18177;DHT22;9213;50.858;3.964;2023-06-14T05:16:56;23.40;35.20
18177;DHT22;9213;50.858;3.964;2023-06-14T05:19:23;23.40;35.40
18177;DHT22;9213;50.858;3.964;2023-06-14T05:21:49;23.40;35.30
18177;DHT22;9213;50.858;3.964;2023-06-14T05:24:18;23.40;35.10
18177;DHT22;9213;50.858;3.964;2023-06-14T05:26:45;23.40;35.40
18177;DHT22;9213;50.858;3.964;2023-06-14T05:29:12;23.40;35.40
18177;DHT22;9213;50.858;3.964;2023-06-14T05:31:39;23.40;35.00
18177;DHT22;9213;50.858;3.964;2023-06-14T05:34:06;23.40;35.10
18177;DHT22;9213;50.858;3.964;2023-06-14T05:36:32;23.50;35.20
18177;DHT22;9213;50.858;3.964;2023-06-14T05:38:59;23.50;34.50
18177;DHT22;9213;50.858;3.964;2023-06-14T05:41:29;23.50;34.40
18177;DHT22;9213;50.858;3.964;2023-06-14T05:43:57;23.50;34.70
18177;DHT22;9213;50.858;3.964;2023-06-14T05:46:25;23.50;35.30
18177;DHT22;9213;50.858;3.964;2023-06-14T05:48:52;23.60;34.80
18177;DHT22;9213;50.858;3.964;2023-06-14T05:51:19;23.60;35.40
18177;DHT22;9213;50.858;3.964;2023-06-14T05:53:46;23.60;35.90
18177;DHT22;9213;50.858;3.964;2023-06-14T05:56:13;23.70;35.70
18177;DHT22;9213;50.858;3.964;2023-06-14T05:58:42;23.80;35.50
18177;DHT22;9213;50.858;3.964;2023-06-14T06:01:08;23.80;35.70
18177;DHT22;9213;50.858;3.964;2023-06-14T06:03:36;23.90;35.20
18177;DHT22;9213;50.858;3.964;2023-06-14T06:06:03;23.90;34.90
18177;DHT22;9213;50.858;3.964;2023-06-14T06:08:30;24.00;35.00
18177;DHT22;9213;50.858;3.964;2023-06-14T06:10:58;24.10;35.50
18177;DHT22;9213;50.858;3.964;2023-06-14T06:13:25;24.10;35.00
18177;DHT22;9213;50.858;3.964;2023-06-14T06:15:54;24.30;34.60
18177;DHT22;9213;50.858;3.964;2023-06-14T06:18:21;24.40;34.40
18177;DHT22;9213;50.858;3.964;2023-06-14T06:20:48;24.50;33.70
18177;DHT22;9213;50.858;3.964;2023-06-14T06:23:15;24.50;33.70
18177;DHT22;9213;50.858;3.964;2023-06-14T06:25:43;24.60;33.50
18177;DHT22;9213;50.858;3.964;2023-06-14T06:28:09;24.70;34.00
18177;DHT22;9213;50.858;3.964;2023-06-14T06:30:36;24.90;33.70
18177;DHT22;9213;50.858;3.964;2023-06-14T06:33:05;25.50;32.90
18177;DHT22;9213;50.858;3.964;2023-06-14T06:35:31;26.80;30.80
18177;DHT22;9213;50.858;3.964;2023-06-14T06:37:59;28.30;29.00
18177;DHT22;9213;50.858;3.964;2023-06-14T06:40:27;30.00;26.90
18177;DHT22;9213;50.858;3.964;2023-06-14T06:42:53;31.80;24.40
18177;DHT22;9213;50.858;3.964;2023-06-14T06:45:21;33.50;22.20
18177;DHT22;9213;50.858;3.964;2023-06-14T06:47:49;35.00;19.70
18177;DHT22;9213;50.858;3.964;2023-06-14T06:50:18;36.10;18.50
18177;DHT22;9213;50.858;3.964;2023-06-14T06:52:48;37.00;17.90
18177;DHT22;9213;50.858;3.964;2023-06-14T06:55:15;37.80;16.60
18177;DHT22;9213;50.858;3.964;2023-06-14T06:57:43;38.60;15.50
18177;DHT22;9213;50.858;3.964;2023-06-14T07:00:10;39.10;15.70
18177;DHT22;9213;50.858;3.964;2023-06-14T07:02:38;39.60;14.90
18177;DHT22;9213;50.858;3.964;2023-06-14T07:05:05;40.10;14.50
18177;DHT22;9213;50.858;3.964;2023-06-14T07:07:34;40.60;13.60
18177;DHT22;9213;50.858;3.964;2023-06-14T07:10:01;41.10;13.20
18177;DHT22;9213;50.858;3.964;2023-06-14T07:12:30;41.40;13.20
18177;DHT22;9213;50.858;3.964;2023-06-14T07:14:59;41.70;12.40
18177;DHT22;9213;50.858;3.964;2023-06-14T07:17:26;41.90;12.50
18177;DHT22;9213;50.858;3.964;2023-06-14T07:19:53;42.10;12.60
18177;DHT22;9213;50.858;3.964;2023-06-14T07:22:20;42.20;12.40
18177;DHT22;9213;50.858;3.964;2023-06-14T07:24:48;42.20;12.30
18177;DHT22;9213;50.858;3.964;2023-06-14T07:27:15;42.30;11.80
18177;DHT22;9213;50.858;3.964;2023-06-14T07:29:42;42.50;11.90
18177;DHT22;9213;50.858;3.964;2023-06-14T07:32:09;42.80;11.40
18177;DHT22;9213;50.858;3.964;2023-06-14T07:34:36;42.90;11.40
18177;DHT22;9213;50.858;3.964;2023-06-14T07:37:03;43.10;11.70
18177;DHT22;9213;50.858;3.964;2023-06-14T07:39:30;43.20;11.90
18177;DHT22;9213;50.858;3.964;2023-06-14T07:41:58;43.40;11.40
18177;DHT22;9213;50.858;3.964;2023-06-14T07:44:29;43.40;11.10
18177;DHT22;9213;50.858;3.964;2023-06-14T07:46:57;43.40;11.10
18177;DHT22;9213;50.858;3.964;2023-06-14T07:49:25;43.30;11.20
18177;DHT22;9213;50.858;3.964;2023-06-14T07:51:52;43.40;11.00
18177;DHT22;9213;50.858;3.964;2023-06-14T07:54:19;43.50;11.30
18177;DHT22;9213;50.858;3.964;2023-06-14T07:56:50;43.50;10.80
18177;DHT22;9213;50.858;3.964;2023-06-14T07:59:18;43.70;10.90
18177;DHT22;9213;50.858;3.964;2023-06-14T08:01:45;43.80;10.60
18177;DHT22;9213;50.858;3.964;2023-06-14T08:04:13;44.00;11.10
18177;DHT22;9213;50.858;3.964;2023-06-14T08:06:40;44.20;10.50
18177;DHT22;9213;50.858;3.964;2023-06-14T08:09:09;44.30;11.30
18177;DHT22;9213;50.858;3.964;2023-06-14T08:11:36;44.30;11.30
18177;DHT22;9213;50.858;3.964;2023-06-14T08:14:04;44.30;11.00
18177;DHT22;9213;50.858;3.964;2023-06-14T08:16:32;44.30;10.70
18177;DHT22;9213;50.858;3.964;2023-06-14T08:18:59;44.00;10.50
18177;DHT22;9213;50.858;3.964;2023-06-14T08:21:26;43.80;10.90
18177;DHT22;9213;50.858;3.964;2023-06-14T08:23:54;43.70;11.50
18177;DHT22;9213;50.858;3.964;2023-06-14T08:26:21;43.80;11.20
18177;DHT22;9213;50.858;3.964;2023-06-14T08:28:48;43.90;10.80
18177;DHT22;9213;50.858;3.964;2023-06-14T08:31:15;43.70;10.90
18177;DHT22;9213;50.858;3.964;2023-06-14T08:33:44;43.50;10.70
18177;DHT22;9213;50.858;3.964;2023-06-14T08:36:11;43.20;10.60
18177;DHT22;9213;50.858;3.964;2023-06-14T08:38:38;42.90;10.80
18177;DHT22;9213;50.858;3.964;2023-06-14T08:41:05;42.60;10.90
18177;DHT22;9213;50.858;3.964;2023-06-14T08:43:33;42.50;11.50
18177;DHT22;9213;50.858;3.964;2023-06-14T08:46:02;42.50;11.30
18177;DHT22;9213;50.858;3.964;2023-06-14T08:48:30;42.50;11.30
18177;DHT22;9213;50.858;3.964;2023-06-14T08:51:01;42.40;11.10
18177;DHT22;9213;50.858;3.964;2023-06-14T08:53:30;42.40;11.60
18177;DHT22;9213;50.858;3.964;2023-06-14T08:55:57;42.40;11.80
18177;DHT22;9213;50.858;3.964;2023-06-14T08:58:26;42.60;11.20
18177;DHT22;9213;50.858;3.964;2023-06-14T09:00:55;42.70;10.70
18177;DHT22;9213;50.858;3.964;2023-06-14T09:03:23;42.60;10.60
18177;DHT22;9213;50.858;3.964;2023-06-14T09:05:56;42.50;11.00
18177;DHT22;9213;50.858;3.964;2023-06-14T09:08:25;42.50;11.20
18177;DHT22;9213;50.858;3.964;2023-06-14T09:10:56;42.60;11.00
18177;DHT22;9213;50.858;3.964;2023-06-14T09:13:23;42.70;11.10
18177;DHT22;9213;50.858;3.964;2023-06-14T09:15:50;42.70;10.80
18177;DHT22;9213;50.858;3.964;2023-06-14T09:18:18;42.50;10.20
18177;DHT22;9213;50.858;3.964;2023-06-14T09:20:46;42.40;10.40
18177;DHT22;9213;50.858;3.964;2023-06-14T09:23:14;42.30;10.00
18177;DHT22;9213;50.858;3.964;2023-06-14T09:25:48;42.30;10.80
18177;DHT22;9213;50.858;3.964;2023-06-14T09:28:15;42.30;10.90
18177;DHT22;9213;50.858;3.964;2023-06-14T09:30:42;42.50;10.30
18177;DHT22;9213;50.858;3.964;2023-06-14T09:33:09;42.70;10.00
18177;DHT22;9213;50.858;3.964;2023-06-14T09:35:36;42.70;9.90
18177;DHT22;9213;50.858;3.964;2023-06-14T09:38:03;42.50;10.80
18177;DHT22;9213;50.858;3.964;2023-06-14T09:40:34;42.40;10.40
18177;DHT22;9213;50.858;3.964;2023-06-14T09:43:06;42.40;9.60
18177;DHT22;9213;50.858;3.964;2023-06-14T09:45:33;42.30;10.30
18177;DHT22;9213;50.858;3.964;2023-06-14T09:48:01;42.30;11.10
18177;DHT22;9213;50.858;3.964;2023-06-14T09:50:28;42.30;10.20
18177;DHT22;9213;50.858;3.964;2023-06-14T09:52:58;42.30;10.20
18177;DHT22;9213;50.858;3.964;2023-06-14T09:55:30;42.10;10.40
18177;DHT22;9213;50.858;3.964;2023-06-14T09:57:59;42.00;10.40
18177;DHT22;9213;50.858;3.964;2023-06-14T10:00:28;41.80;9.50
18177;DHT22;9213;50.858;3.964;2023-06-14T10:03:03;41.80;9.80
18177;DHT22;9213;50.858;3.964;2023-06-14T10:05:31;41.60;10.60
18177;DHT22;9213;50.858;3.964;2023-06-14T10:08:01;41.30;11.20
18177;DHT22;9213;50.858;3.964;2023-06-14T10:10:29;41.20;11.10
18177;DHT22;9213;50.858;3.964;2023-06-14T10:12:56;41.30;11.10
18177;DHT22;9213;50.858;3.964;2023-06-14T10:15:30;41.40;11.40
18177;DHT22;9213;50.858;3.964;2023-06-14T10:18:03;41.50;10.80
18177;DHT22;9213;50.858;3.964;2023-06-14T10:20:37;41.40;11.20
18177;DHT22;9213;50.858;3.964;2023-06-14T10:23:10;41.20;11.10
18177;DHT22;9213;50.858;3.964;2023-06-14T10:25:40;41.00;11.80
18177;DHT22;9213;50.858;3.964;2023-06-14T10:28:16;41.00;11.70
18177;DHT22;9213;50.858;3.964;2023-06-14T10:31:04;41.00;12.30
18177;DHT22;9213;50.858;3.964;2023-06-14T10:33:31;41.10;11.70
18177;DHT22;9213;50.858;3.964;2023-06-14T10:36:25;40.90;11.20
18177;DHT22;9213;50.858;3.964;2023-06-14T10:39:00;41.00;11.90
18177;DHT22;9213;50.858;3.964;2023-06-14T10:41:31;40.80;11.70
18177;DHT22;9213;50.858;3.964;2023-06-14T10:44:39;40.80;11.40
18177;DHT22;9213;50.858;3.964;2023-06-14T10:47:27;41.00;11.60
18177;DHT22;9213;50.858;3.964;2023-06-14T10:49:55;40.80;11.70
18177;DHT22;9213;50.858;3.964;2023-06-14T10:52:24;40.50;11.70
18177;DHT22;9213;50.858;3.964;2023-06-14T10:55:09;40.30;12.20
18177;DHT22;9213;50.858;3.964;2023-06-14T10:57:38;40.30;12.80
18177;DHT22;9213;50.858;3.964;2023-06-14T11:00:07;40.10;12.40
18177;DHT22;9213;50.858;3.964;2023-06-14T11:03:36;39.90;12.20
18177;DHT22;9213;50.858;3.964;2023-06-14T11:06:13;39.80;13.20
18177;DHT22;9213;50.858;3.964;2023-06-14T11:08:58;39.50;13.40
18177;DHT22;9213;50.858;3.964;2023-06-14T11:11:32;39.50;12.80
18177;DHT22;9213;50.858;3.964;2023-06-14T11:14:00;39.30;13.80
18177;DHT22;9213;50.858;3.964;2023-06-14T11:16:27;39.30;12.90
18177;DHT22;9213;50.858;3.964;2023-06-14T11:18:55;39.40;13.50
18177;DHT22;9213;50.858;3.964;2023-06-14T11:21:24;39.40;12.50
18177;DHT22;9213;50.858;3.964;2023-06-14T11:23:56;39.50;12.50
18177;DHT22;9213;50.858;3.964;2023-06-14T11:26:27;39.60;12.60
18177;DHT22;9213;50.858;3.964;2023-06-14T11:28:55;39.70;12.10
18177;DHT22;9213;50.858;3.964;2023-06-14T11:31:23;39.50;12.40
18177;DHT22;9213;50.858;3.964;2023-06-14T11:33:50;39.20;12.70
18177;DHT22;9213;50.858;3.964;2023-06-14T11:36:18;39.10;13.00
18177;DHT22;9213;50.858;3.964;2023-06-14T11:38:45;38.90;11.90
18177;DHT22;9213;50.858;3.964;2023-06-14T11:41:12;38.90;11.90
18177;DHT22;9213;50.858;3.964;2023-06-14T11:43:39;39.00;13.10
18177;DHT22;9213;50.858;3.964;2023-06-14T11:46:12;39.10;13.00
18177;DHT22;9213;50.858;3.964;2023-06-14T11:48:42;39.30;13.40
18177;DHT22;9213;50.858;3.964;2023-06-14T11:51:09;39.30;12.60
18177;DHT22;9213;50.858;3.964;2023-06-14T11:53:38;39.30;12.50
18177;DHT22;9213;50.858;3.964;2023-06-14T11:56:05;39.30;12.00
18177;DHT22;9213;50.858;3.964;2023-06-14T11:58:32;39.40;12.60
18177;DHT22;9213;50.858;3.964;2023-06-14T12:00:59;39.50;11.30
18177;DHT22;9213;50.858;3.964;2023-06-14T12:03:28;39.50;12.00
18177;DHT22;9213;50.858;3.964;2023-06-14T12:06:05;39.50;12.10
18177;DHT22;9213;50.858;3.964;2023-06-14T12:08:33;39.50;12.50
18177;DHT22;9213;50.858;3.964;2023-06-14T12:11:06;39.50;13.20
18177;DHT22;9213;50.858;3.964;2023-06-14T12:13:37;39.40;12.70
18177;DHT22;9213;50.858;3.964;2023-06-14T12:16:07;39.50;13.40
18177;DHT22;9213;50.858;3.964;2023-06-14T12:18:35;39.50;12.20
18177;DHT22;9213;50.858;3.964;2023-06-14T12:21:04;39.50;12.00
18177;DHT22;9213;50.858;3.964;2023-06-14T12:23:45;39.40;12.20
18177;DHT22;9213;50.858;3.964;2023-06-14T12:26:17;39.50;11.90
18177;DHT22;9213;50.858;3.964;2023-06-14T12:28:45;39.40;11.50
18177;DHT22;9213;50.858;3.964;2023-06-14T12:31:14;39.30;12.20
18177;DHT22;9213;50.858;3.964;2023-06-14T12:33:41;39.20;12.60
18177;DHT22;9213;50.858;3.964;2023-06-14T12:36:09;39.30;12.50
18177;DHT22;9213;50.858;3.964;2023-06-14T12:38:36;39.40;11.90
18177;DHT22;9213;50.858;3.964;2023-06-14T12:41:04;39.50;12.10
18177;DHT22;9213;50.858;3.964;2023-06-14T12:43:32;39.60;11.80
18177;DHT22;9213;50.858;3.964;2023-06-14T12:45:59;39.60;12.90
18177;DHT22;9213;50.858;3.964;2023-06-14T12:48:26;39.60;12.80
18177;DHT22;9213;50.858;3.964;2023-06-14T12:50:55;39.60;12.70
18177;DHT22;9213;50.858;3.964;2023-06-14T12:53:22;39.60;12.50
18177;DHT22;9213;50.858;3.964;2023-06-14T12:55:49;39.60;12.20
18177;DHT22;9213;50.858;3.964;2023-06-14T12:58:17;39.60;11.90
18177;DHT22;9213;50.858;3.964;2023-06-14T13:00:46;39.60;12.90
18177;DHT22;9213;50.858;3.964;2023-06-14T13:03:13;39.60;12.10
18177;DHT22;9213;50.858;3.964;2023-06-14T13:05:40;39.50;12.30
18177;DHT22;9213;50.858;3.964;2023-06-14T13:08:08;39.50;12.50
18177;DHT22;9213;50.858;3.964;2023-06-14T13:10:35;39.40;12.00
18177;DHT22;9213;50.858;3.964;2023-06-14T13:13:02;39.40;12.00
18177;DHT22;9213;50.858;3.964;2023-06-14T13:15:29;39.50;11.80
18177;DHT22;9213;50.858;3.964;2023-06-14T13:17:57;39.40;11.70
18177;DHT22;9213;50.858;3.964;2023-06-14T13:20:24;39.40;12.20
18177;DHT22;9213;50.858;3.964;2023-06-14T13:22:51;39.30;12.30
18177;DHT22;9213;50.858;3.964;2023-06-14T13:25:18;39.20;12.60
18177;DHT22;9213;50.858;3.964;2023-06-14T13:27:45;39.20;12.30
18177;DHT22;9213;50.858;3.964;2023-06-14T13:30:12;39.30;13.10
18177;DHT22;9213;50.858;3.964;2023-06-14T13:32:39;39.30;12.70
18177;DHT22;9213;50.858;3.964;2023-06-14T13:35:08;39.30;11.70
18177;DHT22;9213;50.858;3.964;2023-06-14T13:37:35;39.30;12.10
18177;DHT22;9213;50.858;3.964;2023-06-14T13:40:02;39.20;12.10
18177;DHT22;9213;50.858;3.964;2023-06-14T13:42:29;39.10;12.50
18177;DHT22;9213;50.858;3.964;2023-06-14T13:44:58;38.90;11.50
18177;DHT22;9213;50.858;3.964;2023-06-14T13:47:25;38.80;12.20
18177;DHT22;9213;50.858;3.964;2023-06-14T13:49:51;38.60;12.30
18177;DHT22;9213;50.858;3.964;2023-06-14T13:52:20;38.50;12.90
18177;DHT22;9213;50.858;3.964;2023-06-14T13:54:47;38.50;12.30
18177;DHT22;9213;50.858;3.964;2023-06-14T13:57:14;38.30;12.60
18177;DHT22;9213;50.858;3.964;2023-06-14T13:59:41;38.20;13.00
18177;DHT22;9213;50.858;3.964;2023-06-14T14:02:09;38.10;12.70
18177;DHT22;9213;50.858;3.964;2023-06-14T14:04:37;38.10;13.40
18177;DHT22;9213;50.858;3.964;2023-06-14T14:07:05;38.10;13.60
18177;DHT22;9213;50.858;3.964;2023-06-14T14:09:34;38.10;14.00
18177;DHT22;9213;50.858;3.964;2023-06-14T14:12:01;38.00;13.40
18177;DHT22;9213;50.858;3.964;2023-06-14T14:14:29;38.00;13.70
18177;DHT22;9213;50.858;3.964;2023-06-14T14:16:57;37.90;13.00
18177;DHT22;9213;50.858;3.964;2023-06-14T14:19:24;37.80;12.90
18177;DHT22;9213;50.858;3.964;2023-06-14T14:21:51;37.80;13.40
18177;DHT22;9213;50.858;3.964;2023-06-14T14:24:19;37.70;13.00
18177;DHT22;9213;50.858;3.964;2023-06-14T14:26:47;37.70;13.00
18177;DHT22;9213;50.858;3.964;2023-06-14T14:29:15;37.60;12.90
18177;DHT22;9213;50.858;3.964;2023-06-14T14:31:42;37.40;12.90
18177;DHT22;9213;50.858;3.964;2023-06-14T14:34:09;37.20;13.60
18177;DHT22;9213;50.858;3.964;2023-06-14T14:36:36;37.10;14.70
18177;DHT22;9213;50.858;3.964;2023-06-14T14:39:06;37.10;13.80
18177;DHT22;9213;50.858;3.964;2023-06-14T14:41:33;37.00;14.30
18177;DHT22;9213;50.858;3.964;2023-06-14T14:44:02;36.90;13.70
18177;DHT22;9213;50.858;3.964;2023-06-14T14:46:29;36.80;13.30
18177;DHT22;9213;50.858;3.964;2023-06-14T14:48:55;36.60;13.20
18177;DHT22;9213;50.858;3.964;2023-06-14T14:51:22;36.40;13.00
18177;DHT22;9213;50.858;3.964;2023-06-14T14:53:49;36.30;13.00
18177;DHT22;9213;50.858;3.964;2023-06-14T14:56:16;36.20;13.20
18177;DHT22;9213;50.858;3.964;2023-06-14T14:58:43;36.10;13.50
18177;DHT22;9213;50.858;3.964;2023-06-14T15:01:12;36.00;14.60
18177;DHT22;9213;50.858;3.964;2023-06-14T15:03:38;35.90;13.50
18177;DHT22;9213;50.858;3.964;2023-06-14T15:06:06;35.80;14.10
18177;DHT22;9213;50.858;3.964;2023-06-14T15:08:32;35.70;14.70
18177;DHT22;9213;50.858;3.964;2023-06-14T15:11:00;35.70;14.30
18177;DHT22;9213;50.858;3.964;2023-06-14T15:13:28;35.60;13.80
18177;DHT22;9213;50.858;3.964;2023-06-14T15:15:55;35.60;13.80
18177;DHT22;9213;50.858;3.964;2023-06-14T15:18:23;35.50;13.90
18177;DHT22;9213;50.858;3.964;2023-06-14T15:20:50;35.40;14.00
18177;DHT22;9213;50.858;3.964;2023-06-14T15:23:17;35.30;13.80
18177;DHT22;9213;50.858;3.964;2023-06-14T15:25:46;35.20;14.20
18177;DHT22;9213;50.858;3.964;2023-06-14T15:28:13;35.10;14.40
18177;DHT22;9213;50.858;3.964;2023-06-14T15:30:40;35.10;15.50
18177;DHT22;9213;50.858;3.964;2023-06-14T15:33:07;35.10;14.70
18177;DHT22;9213;50.858;3.964;2023-06-14T15:35:35;35.10;14.40
18177;DHT22;9213;50.858;3.964;2023-06-14T15:38:02;35.10;13.70
18177;DHT22;9213;50.858;3.964;2023-06-14T15:40:29;35.00;14.40
18177;DHT22;9213;50.858;3.964;2023-06-14T15:42:56;34.90;14.30
18177;DHT22;9213;50.858;3.964;2023-06-14T15:45:23;34.80;13.90
18177;DHT22;9213;50.858;3.964;2023-06-14T15:47:50;34.70;14.10
18177;DHT22;9213;50.858;3.964;2023-06-14T15:50:17;34.60;14.40
18177;DHT22;9213;50.858;3.964;2023-06-14T15:52:45;34.50;14.50
18177;DHT22;9213;50.858;3.964;2023-06-14T15:55:12;34.50;14.00